Time;durP1;ratioP1;P1;durP2;ratioP2;P2;SDS_P1;SDS_P2;PMS_P1;PMS_P2;Temp;Humidity;BMP_temperature;BMP_pressure;BME280_temperature;BME280_humidity;BME280_pressure;Samples;Min_cycle;Max_cycle;Signal;HPM_P1;HPM_P2
2023/10/23 00:00:42;;;;;;;8.50;6.63;;;;;;;;;;5122306;27;20473;-62
2023/10/23 00:03:08;;;;;;;8.77;5.50;;;;;;;;;;5115252;27;20454;-62
2023/10/23 00:05:34;;;;;;;6.03;5.43;;;;;;;;;;5123782;27;20537;-62
2023/10/23 00:08:01;;;;;;;7.47;5.30;;;;;;;;;;5111187;27;20482;-62
2023/10/23 00:10:33;;;;;;;8.93;6.37;;;;;;;;;;5111748;28;20470;-62
2023/10/23 00:13:01;;;;;;;9.40;5.00;;;;;;;;;;5113282;27;20466;-62
2023/10/23 00:15:27;;;;;;;8.40;6.50;;;;;;;;;;5120054;27;20462;-62
2023/10/23 00:17:54;;;;;;;7.67;6.10;;;;;;;;;;5121631;27;20483;-62
2023/10/23 00:20:20;;;;;;;9.10;7.60;;;;;;;;;;5126834;27;20485;-62
2023/10/23 00:22:47;;;;;;;8.83;6.73;;;;;;;;;;5124100;27;20480;-63
2023/10/23 00:25:13;;;;;;;8.67;7.03;;;;;;;;;;5123248;27;20525;-62
2023/10/23 00:27:40;;;;;;;8.27;6.70;;;;;;;;;;5112954;27;20645;-63
2023/10/23 00:30:08;;;;;;;7.20;6.40;;;;;;;;;;5121226;27;20476;-62
2023/10/23 00:32:35;;;;;;;7.73;6.30;;;;;;;;;;5122959;27;20438;-63
2023/10/23 00:35:01;;;;;;;8.37;7.13;;;;;;;;;;5132250;27;20501;-62
2023/10/23 00:37:28;;;;;;;10.53;7.97;;;;;;;;;;5112870;28;20450;-63
2023/10/23 00:39:54;;;;;;;7.97;6.50;;;;;;;;;;5126884;27;20528;-62
2023/10/23 00:42:21;;;;;;;8.57;6.20;;;;;;;;;;5123632;27;20852;-62
2023/10/23 00:44:47;;;;;;;8.53;6.57;;;;;;;;;;5117878;27;20538;-62
2023/10/23 00:47:16;;;;;;;9.43;8.10;;;;;;;;;;5119147;27;20469;-62
2023/10/23 00:49:43;;;;;;;9.43;7.47;;;;;;;;;;5131134;27;20482;-62
2023/10/23 00:52:10;;;;;;;14.07;8.83;;;;;;;;;;5123721;27;20481;-62
2023/10/23 00:54:36;;;;;;;7.63;6.83;;;;;;;;;;5121694;27;20465;-62
2023/10/23 00:57:03;;;;;;;12.50;7.07;;;;;;;;;;5120246;27;20473;-62
2023/10/23 00:59:30;;;;;;;9.10;6.40;;;;;;;;;;5116622;28;20725;-62
2023/10/23 01:01:57;;;;;;;7.90;6.53;;;;;;;;;;5120878;27;20477;-62
2023/10/23 01:04:25;;;;;;;8.67;7.67;;;;;;;;;;5115903;27;20894;-62
2023/10/23 01:06:51;;;;;;;9.93;8.03;;;;;;;;;;5123472;27;20540;-62
2023/10/23 01:09:18;;;;;;;11.40;9.27;;;;;;;;;;5119474;27;20655;-63
2023/10/23 01:11:44;;;;;;;10.13;7.97;;;;;;;;;;5117666;28;20493;-62
2023/10/23 01:14:11;;;;;;;9.13;7.20;;;;;;;;;;5128410;27;20509;-62
2023/10/23 01:16:37;;;;;;;10.97;8.23;;;;;;;;;;5129839;27;20536;-62
2023/10/23 01:19:04;;;;;;;10.03;8.20;;;;;;;;;;5114027;28;20481;-62
2023/10/23 01:21:32;;;;;;;14.20;7.40;;;;;;;;;;5117665;28;20459;-63
2023/10/23 01:23:59;;;;;;;16.30;7.97;;;;;;;;;;5120966;27;20509;-62
2023/10/23 01:26:27;;;;;;;11.30;7.97;;;;;;;;;;5117591;28;20468;-63
2023/10/23 01:28:53;;;;;;;13.43;8.20;;;;;;;;;;5114750;28;20501;-63
2023/10/23 01:31:19;;;;;;;13.87;10.13;;;;;;;;;;5114072;28;20915;-63
2023/10/23 01:33:46;;;;;;;18.10;9.50;;;;;;;;;;5112262;28;20549;-63
2023/10/23 01:36:12;;;;;;;11.37;8.50;;;;;;;;;;5122080;28;20446;-63
2023/10/23 01:38:39;;;;;;;14.13;8.53;;;;;;;;;;5120118;28;20989;-63
2023/10/23 01:41:05;;;;;;;12.10;9.20;;;;;;;;;;5118309;28;20478;-63
2023/10/23 01:43:33;;;;;;;16.13;11.43;;;;;;;;;;5124558;28;20495;-62
2023/10/23 01:46:00;;;;;;;11.57;9.93;;;;;;;;;;5108267;28;20522;-62
2023/10/23 01:48:26;;;;;;;13.40;9.80;;;;;;;;;;5123632;28;20458;-63
2023/10/23 01:50:52;;;;;;;12.00;9.30;;;;;;;;;;5112622;28;20542;-63
2023/10/23 01:53:19;;;;;;;15.20;11.80;;;;;;;;;;5110651;28;20518;-62
2023/10/23 01:55:45;;;;;;;12.33;10.93;;;;;;;;;;5111520;28;20492;-62
2023/10/23 01:58:11;;;;;;;15.57;11.70;;;;;;;;;;5121079;28;20450;-62
2023/10/23 02:00:40;;;;;;;11.63;9.60;;;;;;;;;;5114972;28;20446;-62
2023/10/23 02:03:07;;;;;;;12.53;9.80;;;;;;;;;;5120535;28;20470;-62
2023/10/23 02:05:34;;;;;;;13.03;11.10;;;;;;;;;;5119925;28;20457;-62
2023/10/23 02:08:00;;;;;;;15.33;11.00;;;;;;;;;;5120280;27;20525;-63
2023/10/23 02:10:26;;;;;;;12.97;10.57;;;;;;;;;;5116116;27;20585;-63
2023/10/23 02:12:53;;;;;;;16.57;10.87;;;;;;;;;;5124957;27;21059;-62
2023/10/23 02:15:19;;;;;;;12.60;9.83;;;;;;;;;;5121219;27;20460;-62
2023/10/23 02:17:47;;;;;;;14.90;11.63;;;;;;;;;;5118274;28;20460;-62
2023/10/23 02:20:13;;;;;;;14.60;11.33;;;;;;;;;;5118867;27;20521;-62
2023/10/23 02:22:39;;;;;;;13.80;10.50;;;;;;;;;;5127841;27;20442;-62
2023/10/23 02:25:06;;;;;;;16.10;11.93;;;;;;;;;;5113395;27;20549;-62
2023/10/23 02:27:33;;;;;;;14.03;11.20;;;;;;;;;;5119707;27;20525;-62
2023/10/23 02:29:59;;;;;;;14.07;11.43;;;;;;;;;;5120334;27;20867;-63
2023/10/23 02:32:25;;;;;;;13.90;11.40;;;;;;;;;;5119783;28;20536;-62
2023/10/23 02:34:54;;;;;;;16.47;11.47;;;;;;;;;;5120757;27;20500;-62
2023/10/23 02:37:21;;;;;;;17.13;12.33;;;;;;;;;;5113785;28;20445;-63
2023/10/23 02:39:47;;;;;;;16.50;11.80;;;;;;;;;;5122653;27;21167;-62
2023/10/23 02:42:14;;;;;;;18.73;12.13;;;;;;;;;;5113344;27;20521;-62
2023/10/23 02:44:40;;;;;;;17.47;13.60;;;;;;;;;;5126439;27;20813;-62
2023/10/23 02:47:06;;;;;;;15.83;12.23;;;;;;;;;;5122127;27;20510;-62
2023/10/23 02:49:33;;;;;;;19.23;12.93;;;;;;;;;;5128375;27;20489;-62
2023/10/23 02:52:01;;;;;;;14.80;11.87;;;;;;;;;;5126151;27;20482;-62
2023/10/23 02:54:28;;;;;;;17.87;12.57;;;;;;;;;;5108890;27;20538;-63
2023/10/23 02:56:54;;;;;;;17.27;12.60;;;;;;;;;;5136432;27;20452;-63
2023/10/23 02:59:21;;;;;;;14.00;11.67;;;;;;;;;;5121979;28;20490;-62
2023/10/23 03:01:48;;;;;;;17.30;12.10;;;;;;;;;;5116910;27;20458;-62
2023/10/23 03:04:14;;;;;;;17.27;13.27;;;;;;;;;;5123652;27;20450;-62
2023/10/23 03:06:40;;;;;;;15.87;12.33;;;;;;;;;;5120495;27;20479;-62
2023/10/23 03:09:08;;;;;;;15.20;10.63;;;;;;;;;;5123666;27;21097;-62
2023/10/23 03:11:34;;;;;;;15.53;12.20;;;;;;;;;;5135177;27;20476;-62
2023/10/23 03:14:01;;;;;;;17.30;13.23;;;;;;;;;;5118841;28;20492;-62
2023/10/23 03:16:29;;;;;;;14.40;12.07;;;;;;;;;;5125729;27;20532;-62
2023/10/23 03:18:55;;;;;;;14.97;11.70;;;;;;;;;;5121389;27;20473;-62
2023/10/23 03:21:21;;;;;;;16.27;12.73;;;;;;;;;;5117671;28;20561;-62
2023/10/23 03:23:51;;;;;;;15.20;11.10;;;;;;;;;;5122313;27;20486;-63
2023/10/23 03:26:19;;;;;;;16.03;11.00;;;;;;;;;;5114867;28;20474;-62
2023/10/23 03:28:45;;;;;;;14.37;11.57;;;;;;;;;;5120146;28;20458;-62
2023/10/23 03:31:11;;;;;;;15.03;11.10;;;;;;;;;;5111506;28;20477;-63
2023/10/23 03:33:38;;;;;;;15.50;12.97;;;;;;;;;;5117221;27;20537;-62
2023/10/23 03:36:04;;;;;;;13.77;11.20;;;;;;;;;;5117955;27;20522;-62
2023/10/23 03:38:30;;;;;;;19.23;12.00;;;;;;;;;;5125047;27;20541;-62
2023/10/23 03:40:58;;;;;;;16.43;11.30;;;;;;;;;;5126609;27;20512;-62
2023/10/23 03:43:26;;;;;;;14.97;11.20;;;;;;;;;;5115015;28;20460;-62
2023/10/23 03:45:52;;;;;;;14.87;11.63;;;;;;;;;;5113840;27;20844;-62
2023/10/23 03:48:19;;;;;;;16.87;12.47;;;;;;;;;;5109408;27;20522;-62
2023/10/23 03:50:45;;;;;;;19.23;12.40;;;;;;;;;;5120896;27;20486;-62
2023/10/23 03:53:11;;;;;;;19.00;12.83;;;;;;;;;;5119714;27;20470;-63
2023/10/23 03:55:38;;;;;;;19.60;13.80;;;;;;;;;;5116548;27;20489;-63
2023/10/23 03:58:04;;;;;;;14.60;11.40;;;;;;;;;;5110088;27;20525;-63
2023/10/23 04:00:32;;;;;;;16.60;12.50;;;;;;;;;;5113636;27;20480;-62
2023/10/23 04:02:58;;;;;;;17.00;11.87;;;;;;;;;;5120349;27;20438;-62
2023/10/23 04:05:25;;;;;;;15.80;11.87;;;;;;;;;;5121001;27;20458;-62
2023/10/23 04:07:51;;;;;;;17.53;13.10;;;;;;;;;;5129533;27;20822;-62
2023/10/23 04:10:18;;;;;;;21.37;14.93;;;;;;;;;;5107137;27;20506;-62
2023/10/23 04:12:44;;;;;;;17.50;12.20;;;;;;;;;;5117148;27;20525;-63
2023/10/23 04:15:10;;;;;;;18.03;13.40;;;;;;;;;;5121209;27;20608;-63
2023/10/23 04:17:38;;;;;;;17.33;13.00;;;;;;;;;;5118435;27;20475;-62
2023/10/23 04:20:05;;;;;;;19.20;13.07;;;;;;;;;;5118052;27;20486;-62
2023/10/23 04:22:32;;;;;;;20.10;13.27;;;;;;;;;;5121487;27;20783;-62
2023/10/23 04:24:58;;;;;;;17.90;13.00;;;;;;;;;;5119537;28;20502;-62
2023/10/23 04:27:25;;;;;;;17.60;12.20;;;;;;;;;;5120961;27;20884;-62
2023/10/23 04:29:51;;;;;;;19.20;13.23;;;;;;;;;;5119487;28;20542;-63
2023/10/23 04:32:17;;;;;;;22.33;14.37;;;;;;;;;;5125815;27;20548;-63
2023/10/23 04:34:45;;;;;;;21.43;14.33;;;;;;;;;;5115780;28;20504;-63
2023/10/23 04:37:12;;;;;;;23.83;14.60;;;;;;;;;;5117712;27;20540;-63
2023/10/23 04:39:38;;;;;;;22.90;16.10;;;;;;;;;;5126811;27;21038;-63
2023/10/23 04:42:05;;;;;;;24.20;15.80;;;;;;;;;;5123960;27;20548;-62
2023/10/23 04:44:31;;;;;;;25.17;17.67;;;;;;;;;;5123324;27;20549;-63
2023/10/23 04:46:58;;;;;;;26.83;15.83;;;;;;;;;;5130309;27;20458;-63
2023/10/23 04:49:24;;;;;;;23.60;16.40;;;;;;;;;;5131620;27;20490;-63
2023/10/23 04:51:52;;;;;;;25.30;16.00;;;;;;;;;;5124862;27;20533;-63
2023/10/23 04:54:19;;;;;;;24.20;15.03;;;;;;;;;;5122696;27;20457;-62
2023/10/23 04:56:45;;;;;;;24.63;17.17;;;;;;;;;;5124475;27;20533;-63
2023/10/23 04:59:12;;;;;;;24.40;16.60;;;;;;;;;;5117996;27;20491;-62
2023/10/23 05:01:38;;;;;;;24.80;15.43;;;;;;;;;;5118301;28;20477;-63
2023/10/23 05:04:05;;;;;;;29.83;16.97;;;;;;;;;;5122525;27;21041;-64
2023/10/23 05:06:31;;;;;;;23.13;15.90;;;;;;;;;;5121636;27;20947;-59
2023/10/23 05:08:59;;;;;;;27.00;16.23;;;;;;;;;;5119315;28;20446;-62
2023/10/23 05:11:25;;;;;;;26.03;16.60;;;;;;;;;;5120020;27;21016;-61
2023/10/23 05:13:51;;;;;;;23.63;16.80;;;;;;;;;;5120071;27;20523;-61
2023/10/23 05:16:18;;;;;;;24.50;15.20;;;;;;;;;;5122410;27;20450;-61
2023/10/23 05:18:44;;;;;;;23.87;15.73;;;;;;;;;;5122006;27;20516;-62
2023/10/23 05:21:11;;;;;;;27.67;17.13;;;;;;;;;;5118230;27;20526;-61
2023/10/23 05:23:38;;;;;;;25.90;17.30;;;;;;;;;;5121928;27;20542;-61
2023/10/23 05:26:06;;;;;;;29.57;17.10;;;;;;;;;;5123903;27;20446;-61
2023/10/23 05:28:33;;;;;;;25.30;15.90;;;;;;;;;;5121080;28;20977;-61
2023/10/23 05:30:59;;;;;;;26.60;16.47;;;;;;;;;;5121317;28;21379;-61
2023/10/23 05:33:25;;;;;;;27.33;17.17;;;;;;;;;;5120096;28;20636;-61
2023/10/23 05:36:00;;;;;;;27.17;16.53;;;;;;;;;;5109214;28;20462;-62
2023/10/23 05:38:27;;;;;;;29.33;18.43;;;;;;;;;;5117559;28;20456;-62
2023/10/23 05:40:56;;;;;;;25.10;16.13;;;;;;;;;;5117784;27;20542;-62
2023/10/23 05:43:23;;;;;;;28.20;18.40;;;;;;;;;;5114598;28;20450;-62
2023/10/23 05:45:50;;;;;;;25.27;16.27;;;;;;;;;;5122813;27;20470;-63
2023/10/23 05:48:16;;;;;;;29.90;18.00;;;;;;;;;;5134867;27;20450;-62
2023/10/23 05:50:42;;;;;;;29.50;16.50;;;;;;;;;;5123454;27;20624;-63
2023/10/23 05:53:09;;;;;;;27.33;18.03;;;;;;;;;;5125973;27;20624;-63
2023/10/23 05:55:35;;;;;;;26.50;15.50;;;;;;;;;;5127082;27;20532;-62
2023/10/23 05:58:02;;;;;;;26.83;15.63;;;;;;;;;;5129025;27;20537;-62
2023/10/23 06:00:30;;;;;;;24.47;16.30;;;;;;;;;;5126656;27;21241;-62
2023/10/23 06:02:56;;;;;;;24.00;15.00;;;;;;;;;;5121203;27;20548;-62
2023/10/23 06:05:23;;;;;;;26.57;16.60;;;;;;;;;;5130021;27;20453;-63
2023/10/23 06:07:49;;;;;;;28.60;16.83;;;;;;;;;;5138519;27;20514;-62
2023/10/23 06:10:16;;;;;;;29.20;18.20;;;;;;;;;;5135966;27;21004;-62
2023/10/23 06:12:42;;;;;;;25.90;17.17;;;;;;;;;;5122530;28;20493;-61
2023/10/23 06:15:10;;;;;;;29.07;16.20;;;;;;;;;;5130578;27;20529;-63
2023/10/23 06:17:37;;;;;;;27.60;18.23;;;;;;;;;;5128401;27;20494;-62
2023/10/23 06:20:05;;;;;;;36.20;18.60;;;;;;;;;;5120989;28;20485;-62
2023/10/23 06:22:31;;;;;;;27.10;17.00;;;;;;;;;;5115036;28;20458;-62
2023/10/23 06:24:58;;;;;;;35.00;18.77;;;;;;;;;;5130199;27;20480;-61
2023/10/23 06:27:24;;;;;;;30.60;17.87;;;;;;;;;;5123540;27;21092;-62
2023/10/23 06:29:50;;;;;;;35.77;19.80;;;;;;;;;;5122866;28;20521;-62
2023/10/23 06:32:18;;;;;;;30.57;18.10;;;;;;;;;;5123136;28;20717;-62
2023/10/23 06:34:45;;;;;;;35.93;19.50;;;;;;;;;;5129380;27;20465;-62
2023/10/23 06:37:12;;;;;;;33.50;18.03;;;;;;;;;;5123580;27;20478;-63
2023/10/23 06:39:38;;;;;;;37.30;18.43;;;;;;;;;;5122975;28;20826;-62
2023/10/23 06:42:05;;;;;;;39.03;20.10;;;;;;;;;;5123159;27;20499;-62
2023/10/23 06:44:31;;;;;;;35.70;18.70;;;;;;;;;;5117814;27;20461;-63
2023/10/23 06:46:58;;;;;;;37.90;18.60;;;;;;;;;;5122991;27;20447;-63
2023/10/23 06:49:24;;;;;;;43.13;22.10;;;;;;;;;;5127159;27;20540;-62
2023/10/23 06:51:52;;;;;;;40.30;21.67;;;;;;;;;;5123582;27;21298;-63
2023/10/23 06:54:20;;;;;;;42.20;19.60;;;;;;;;;;5125764;27;20537;-62
2023/10/23 06:56:47;;;;;;;41.00;21.07;;;;;;;;;;5125272;27;20468;-62
2023/10/23 06:59:13;;;;;;;43.43;21.50;;;;;;;;;;5127858;27;20469;-62
2023/10/23 07:01:39;;;;;;;40.57;20.90;;;;;;;;;;5121452;27;20451;-62
2023/10/23 07:04:06;;;;;;;38.00;20.60;;;;;;;;;;5117319;28;20513;-62
2023/10/23 07:06:33;;;;;;;35.87;19.07;;;;;;;;;;5118524;27;20495;-63
2023/10/23 07:09:01;;;;;;;40.40;20.30;;;;;;;;;;5129208;27;20458;-63
2023/10/23 07:11:27;;;;;;;34.83;19.80;;;;;;;;;;5123026;27;21541;-62
2023/10/23 07:13:53;;;;;;;41.83;22.50;;;;;;;;;;5124595;27;20522;-63
2023/10/23 07:16:20;;;;;;;33.90;19.97;;;;;;;;;;5121119;28;20533;-62
2023/10/23 07:18:46;;;;;;;38.77;21.43;;;;;;;;;;5116980;27;20489;-62
2023/10/23 07:21:12;;;;;;;47.00;21.83;;;;;;;;;;5127919;27;20514;-62
2023/10/23 07:23:39;;;;;;;46.10;22.50;;;;;;;;;;5120518;28;20554;-63
2023/10/23 07:26:10;;;;;;;41.80;21.00;;;;;;;;;;5129279;27;21044;-63
2023/10/23 07:28:38;;;;;;;34.83;20.53;;;;;;;;;;5116935;28;20481;-62
2023/10/23 07:31:04;;;;;;;38.93;20.33;;;;;;;;;;5120714;27;20489;-62
2023/10/23 07:33:31;;;;;;;35.20;21.13;;;;;;;;;;5131144;27;20452;-63
2023/10/23 07:36:01;;;;;;;33.43;19.67;;;;;;;;;;5133705;27;20486;-63
2023/10/23 07:38:28;;;;;;;33.67;19.43;;;;;;;;;;5139179;27;20744;-62
2023/10/23 07:40:55;;;;;;;28.30;19.30;;;;;;;;;;5134347;27;20540;-63
2023/10/23 07:43:22;;;;;;;27.37;19.53;;;;;;;;;;5133076;27;20454;-63
2023/10/23 07:45:49;;;;;;;24.47;17.43;;;;;;;;;;5113946;27;20490;-63
2023/10/23 07:48:15;;;;;;;21.10;16.23;;;;;;;;;;5122939;27;20521;-63
2023/10/23 07:50:41;;;;;;;21.73;16.77;;;;;;;;;;5114639;28;21061;-63
2023/10/23 07:53:07;;;;;;;21.10;17.37;;;;;;;;;;5114964;27;20446;-63
2023/10/23 07:55:33;;;;;;;20.53;16.93;;;;;;;;;;5134111;27;20200;-63
2023/10/23 07:58:00;;;;;;;18.10;16.20;;;;;;;;;;5129868;27;20492;-63
2023/10/23 08:00:28;;;;;;;21.13;17.80;;;;;;;;;;5130290;27;20445;-64
2023/10/23 08:02:55;;;;;;;20.83;17.63;;;;;;;;;;5123236;27;20434;-63
2023/10/23 08:05:22;;;;;;;21.93;18.40;;;;;;;;;;5122172;28;21035;-63
2023/10/23 08:07:48;;;;;;;19.90;16.30;;;;;;;;;;5128442;27;20502;-63
2023/10/23 08:10:15;;;;;;;20.40;17.70;;;;;;;;;;5124476;27;20446;-64
2023/10/23 08:12:41;;;;;;;20.23;18.10;;;;;;;;;;5116252;28;20485;-64
2023/10/23 08:15:09;;;;;;;19.70;17.20;;;;;;;;;;5121304;27;20478;-63
2023/10/23 08:17:36;;;;;;;22.20;18.77;;;;;;;;;;5120206;27;20523;-64
2023/10/23 08:20:04;;;;;;;22.97;18.17;;;;;;;;;;5128725;27;21375;-63
2023/10/23 08:22:30;;;;;;;22.70;18.33;;;;;;;;;;5131110;27;20458;-62
2023/10/23 08:24:57;;;;;;;23.40;19.70;;;;;;;;;;5125753;27;20488;-62
2023/10/23 08:27:24;;;;;;;22.03;17.60;;;;;;;;;;5127850;27;21005;-63
2023/10/23 08:29:51;;;;;;;19.10;16.07;;;;;;;;;;5131752;27;21185;-63
2023/10/23 08:32:17;;;;;;;20.43;17.13;;;;;;;;;;5122381;27;20513;-64
2023/10/23 08:34:45;;;;;;;19.80;17.70;;;;;;;;;;5120147;27;20531;-63
2023/10/23 08:37:12;;;;;;;18.47;16.47;;;;;;;;;;5111361;28;20497;-63
2023/10/23 08:39:39;;;;;;;20.60;17.50;;;;;;;;;;5118205;27;20451;-63
2023/10/23 08:42:06;;;;;;;21.03;17.77;;;;;;;;;;5112961;27;20454;-63
2023/10/23 08:44:32;;;;;;;23.27;18.13;;;;;;;;;;5118605;27;20552;-63
2023/10/23 08:46:59;;;;;;;22.60;17.83;;;;;;;;;;5118981;27;20454;-64
2023/10/23 08:49:27;;;;;;;22.07;19.67;;;;;;;;;;5115588;28;20466;-63
2023/10/23 08:51:58;;;;;;;21.10;18.80;;;;;;;;;;5122807;27;20697;-63
2023/10/23 08:54:24;;;;;;;22.10;18.90;;;;;;;;;;5117007;28;20457;-62
2023/10/23 08:56:53;;;;;;;23.03;18.27;;;;;;;;;;5120096;27;20553;-63
2023/10/23 08:59:19;;;;;;;24.87;17.70;;;;;;;;;;5114575;28;20537;-64
2023/10/23 09:01:46;;;;;;;23.70;17.83;;;;;;;;;;5116396;28;20451;-64
2023/10/23 09:04:12;;;;;;;24.97;17.23;;;;;;;;;;5129273;27;20560;-63
2023/10/23 09:06:39;;;;;;;21.70;18.00;;;;;;;;;;5118945;27;20478;-63
2023/10/23 09:09:07;;;;;;;24.53;18.30;;;;;;;;;;5119672;28;20533;-63
2023/10/23 09:11:41;;;;;;;27.17;18.27;;;;;;;;;;5132526;27;20484;-63
2023/10/23 09:14:07;;;;;;;23.23;17.03;;;;;;;;;;5121875;27;20488;-62
2023/10/23 09:16:34;;;;;;;31.40;16.60;;;;;;;;;;5129450;27;20521;-63
2023/10/23 09:19:00;;;;;;;27.90;19.23;;;;;;;;;;5139739;27;20508;-62
2023/10/23 09:21:26;;;;;;;24.00;17.83;;;;;;;;;;5127628;27;20506;-62
2023/10/23 09:23:54;;;;;;;27.10;17.40;;;;;;;;;;5110517;28;20915;-62
2023/10/23 09:26:24;;;;;;;25.00;16.30;;;;;;;;;;5102326;28;20450;-63
2023/10/23 09:28:52;;;;;;;23.60;17.67;;;;;;;;;;5130753;27;20488;-63
2023/10/23 09:31:19;;;;;;;25.30;18.83;;;;;;;;;;5129328;28;20509;-63
2023/10/23 09:33:46;;;;;;;26.33;17.87;;;;;;;;;;5122935;28;20446;-62
2023/10/23 09:36:13;;;;;;;22.20;18.13;;;;;;;;;;5115065;28;20491;-63
2023/10/23 09:38:40;;;;;;;19.43;15.77;;;;;;;;;;5114983;28;20462;-62
2023/10/23 09:41:08;;;;;;;26.47;16.20;;;;;;;;;;5119175;28;20443;-63
2023/10/23 09:43:37;;;;;;;21.67;14.77;;;;;;;;;;5107014;28;20526;-62
2023/10/23 09:46:03;;;;;;;19.93;16.17;;;;;;;;;;5126731;28;20477;-62
2023/10/23 09:48:31;;;;;;;17.10;14.50;;;;;;;;;;5120255;28;20488;-64
2023/10/23 09:51:00;;;;;;;20.27;15.63;;;;;;;;;;5121762;28;20514;-63
2023/10/23 09:53:26;;;;;;;16.40;14.07;;;;;;;;;;5127269;28;20569;-63
2023/10/23 09:55:55;;;;;;;19.63;15.67;;;;;;;;;;5118417;28;20458;-63
2023/10/23 09:58:21;;;;;;;19.07;14.83;;;;;;;;;;5130976;28;20453;-62
2023/10/23 10:00:51;;;;;;;20.73;16.17;;;;;;;;;;5132680;28;21033;-61
2023/10/23 10:03:18;;;;;;;19.77;15.60;;;;;;;;;;5127200;28;20445;-62
2023/10/23 10:05:46;;;;;;;17.23;13.67;;;;;;;;;;5120407;28;20447;-64
2023/10/23 10:08:14;;;;;;;15.33;13.43;;;;;;;;;;5115444;28;20445;-64
2023/10/23 10:10:41;;;;;;;14.77;13.20;;;;;;;;;;5120316;28;20653;-62
2023/10/23 10:13:08;;;;;;;13.50;11.93;;;;;;;;;;5121092;28;20524;-62
2023/10/23 10:15:34;;;;;;;13.30;11.90;;;;;;;;;;5129830;28;20948;-62
2023/10/23 10:18:02;;;;;;;14.70;12.00;;;;;;;;;;5125105;28;20447;-64
2023/10/23 10:20:28;;;;;;;14.17;11.53;;;;;;;;;;5124399;28;20714;-62
2023/10/23 10:22:59;;;;;;;13.10;11.70;;;;;;;;;;5122998;28;20437;-66
2023/10/23 10:25:26;;;;;;;13.40;12.00;;;;;;;;;;5117630;28;20546;-63
2023/10/23 10:27:56;;;;;;;14.60;11.60;;;;;;;;;;5125196;27;21185;-62
2023/10/23 10:30:37;;;;;;;15.80;13.73;;;;;;;;;;5112663;27;20453;-63
2023/10/23 10:33:07;;;;;;;14.53;13.03;;;;;;;;;;5134192;27;20512;-62
2023/10/23 10:35:35;;;;;;;14.03;11.83;;;;;;;;;;5114779;27;20513;-63
2023/10/23 10:38:03;;;;;;;13.33;11.47;;;;;;;;;;5126108;27;20528;-63
2023/10/23 10:40:49;;;;;;;17.60;12.23;;;;;;;;;;5116967;27;20450;-64
2023/10/23 10:43:19;;;;;;;16.17;12.70;;;;;;;;;;5124279;27;20478;-63
2023/10/23 10:45:46;;;;;;;13.60;12.03;;;;;;;;;;5127506;27;20447;-63
2023/10/23 10:48:15;;;;;;;16.70;14.20;;;;;;;;;;5118830;27;20477;-60
2023/10/23 10:50:42;;;;;;;14.80;13.10;;;;;;;;;;5120759;27;20564;-61
2023/10/23 10:53:09;;;;;;;13.20;11.83;;;;;;;;;;5114198;27;20485;-62
2023/10/23 10:55:36;;;;;;;14.40;11.27;;;;;;;;;;5112468;27;20474;-64
2023/10/23 10:58:03;;;;;;;13.37;11.97;;;;;;;;;;5119289;27;20524;-62
2023/10/23 11:00:30;;;;;;;15.10;12.40;;;;;;;;;;5106959;27;20508;-61
2023/10/23 11:02:57;;;;;;;13.83;12.20;;;;;;;;;;5112133;27;20431;-61
2023/10/23 11:05:25;;;;;;;14.73;13.23;;;;;;;;;;5114393;28;20565;-61
2023/10/23 11:07:51;;;;;;;12.10;10.63;;;;;;;;;;5113524;27;20546;-61
2023/10/23 11:10:19;;;;;;;15.87;11.70;;;;;;;;;;5114181;27;20943;-62
2023/10/23 11:12:46;;;;;;;14.90;11.60;;;;;;;;;;5109964;28;20561;-61
2023/10/23 11:15:13;;;;;;;13.07;11.20;;;;;;;;;;5111495;27;20522;-62
2023/10/23 11:17:41;;;;;;;10.33;8.60;;;;;;;;;;5124974;27;20540;-61
2023/10/23 11:20:07;;;;;;;9.27;8.33;;;;;;;;;;5120451;27;20464;-61
2023/10/23 11:22:37;;;;;;;10.87;7.60;;;;;;;;;;5113382;27;20500;-62
2023/10/23 11:25:06;;;;;;;10.20;8.33;;;;;;;;;;5116312;27;20517;-61
2023/10/23 11:27:33;;;;;;;9.50;8.70;;;;;;;;;;5121020;27;20451;-61
2023/10/23 11:29:59;;;;;;;9.93;8.13;;;;;;;;;;5121489;27;20945;-60
2023/10/23 11:32:28;;;;;;;9.50;8.50;;;;;;;;;;5112584;27;20517;-64
2023/10/23 11:35:00;;;;;;;9.53;8.57;;;;;;;;;;5124150;27;20554;-64
2023/10/23 11:37:26;;;;;;;10.73;9.17;;;;;;;;;;5122316;27;20852;-64
2023/10/23 11:39:56;;;;;;;9.90;8.93;;;;;;;;;;5121170;27;21073;-64
2023/10/23 11:42:23;;;;;;;10.33;8.60;;;;;;;;;;5116557;28;20465;-64
2023/10/23 11:44:49;;;;;;;10.80;8.13;;;;;;;;;;5130175;27;20482;-65
2023/10/23 11:47:15;;;;;;;8.10;7.30;;;;;;;;;;5128379;27;20820;-63
2023/10/23 11:49:48;;;;;;;8.50;7.77;;;;;;;;;;5118778;27;20446;-63
2023/10/23 11:52:14;;;;;;;8.17;7.37;;;;;;;;;;5101032;27;20545;-62
2023/10/23 11:54:41;;;;;;;10.73;9.47;;;;;;;;;;5104258;27;20493;-65
2023/10/23 11:57:08;;;;;;;9.23;8.43;;;;;;;;;;5130935;27;21065;-64
2023/10/23 11:59:39;;;;;;;10.70;8.40;;;;;;;;;;5124119;27;20484;-64
2023/10/23 12:02:06;;;;;;;9.30;8.13;;;;;;;;;;5117261;27;20533;-63
2023/10/23 12:04:35;;;;;;;10.53;8.57;;;;;;;;;;5120208;27;20504;-64
2023/10/23 12:07:02;;;;;;;9.90;8.33;;;;;;;;;;5126064;27;20633;-64
2023/10/23 12:09:29;;;;;;;9.10;8.13;;;;;;;;;;5113482;27;20856;-64
2023/10/23 12:11:56;;;;;;;10.10;8.97;;;;;;;;;;5120682;27;20513;-64
2023/10/23 12:14:24;;;;;;;9.90;7.80;;;;;;;;;;5127528;27;20566;-65
2023/10/23 12:16:50;;;;;;;8.63;7.67;;;;;;;;;;5112453;27;20523;-65
2023/10/23 12:19:17;;;;;;;9.77;8.40;;;;;;;;;;5121951;27;20548;-63
2023/10/23 12:21:43;;;;;;;10.10;9.20;;;;;;;;;;5123302;27;20489;-64
2023/10/23 12:24:10;;;;;;;10.33;9.40;;;;;;;;;;5122759;27;21072;-64
2023/10/23 12:26:36;;;;;;;11.63;8.83;;;;;;;;;;5126798;27;20530;-64
2023/10/23 12:29:05;;;;;;;9.80;9.00;;;;;;;;;;5111471;28;20771;-64
2023/10/23 12:31:32;;;;;;;9.90;8.90;;;;;;;;;;5115270;27;20482;-65
2023/10/23 12:33:59;;;;;;;9.83;8.83;;;;;;;;;;5116477;27;20675;-64
2023/10/23 12:36:25;;;;;;;9.20;8.30;;;;;;;;;;5119440;27;20994;-64
2023/10/23 12:38:51;;;;;;;10.70;9.60;;;;;;;;;;5116203;27;20486;-64
2023/10/23 12:41:18;;;;;;;10.17;9.10;;;;;;;;;;5117058;27;20481;-65
2023/10/23 12:43:44;;;;;;;10.40;8.40;;;;;;;;;;5125595;27;20440;-66
2023/10/23 12:46:11;;;;;;;12.27;9.00;;;;;;;;;;5121355;27;20474;-66
2023/10/23 12:48:41;;;;;;;9.43;8.53;;;;;;;;;;5125610;27;20488;-65
2023/10/23 12:51:07;;;;;;;9.67;8.67;;;;;;;;;;5132266;27;20459;-64
2023/10/23 12:53:34;;;;;;;9.17;8.17;;;;;;;;;;5119287;27;20496;-64
2023/10/23 12:56:00;;;;;;;12.03;9.10;;;;;;;;;;5117656;28;20473;-64
2023/10/23 12:58:27;;;;;;;9.20;8.30;;;;;;;;;;5114795;28;20529;-64
2023/10/23 13:00:53;;;;;;;12.23;8.40;;;;;;;;;;5111292;27;21047;-64
2023/10/23 13:03:20;;;;;;;9.70;8.80;;;;;;;;;;5110762;28;20481;-64
2023/10/23 13:05:48;;;;;;;9.37;7.50;;;;;;;;;;5126400;27;20505;-64
2023/10/23 13:08:15;;;;;;;8.97;8.17;;;;;;;;;;5120591;27;20449;-64
2023/10/23 13:10:41;;;;;;;9.30;8.40;;;;;;;;;;5112879;27;20848;-64
2023/10/23 13:13:07;;;;;;;9.03;7.50;;;;;;;;;;5104952;28;20482;-64
2023/10/23 13:15:34;;;;;;;7.73;7.00;;;;;;;;;;5109808;28;20454;-65
2023/10/23 13:18:02;;;;;;;10.33;7.50;;;;;;;;;;5117585;28;20450;-65
2023/10/23 13:20:28;;;;;;;8.53;6.87;;;;;;;;;;5113093;28;20542;-64
2023/10/23 13:22:56;;;;;;;7.70;7.00;;;;;;;;;;5115879;27;20473;-62
2023/10/23 13:25:22;;;;;;;7.60;6.80;;;;;;;;;;5121540;27;20573;-63
2023/10/23 13:27:49;;;;;;;6.77;6.10;;;;;;;;;;5116848;27;20486;-63
2023/10/23 13:30:15;;;;;;;7.40;6.60;;;;;;;;;;5118572;28;20549;-63
2023/10/23 13:32:42;;;;;;;6.83;6.13;;;;;;;;;;5105348;28;20812;-63
2023/10/23 13:35:09;;;;;;;6.10;5.60;;;;;;;;;;5115700;28;20494;-63
2023/10/23 13:37:35;;;;;;;6.40;5.80;;;;;;;;;;5115920;28;20450;-66
2023/10/23 13:40:07;;;;;;;7.93;6.63;;;;;;;;;;5130071;28;20922;-64
2023/10/23 13:42:33;;;;;;;6.30;5.80;;;;;;;;;;5107695;28;20458;-63
2023/10/23 13:45:00;;;;;;;6.73;5.50;;;;;;;;;;5115127;28;20876;-63
2023/10/23 13:47:26;;;;;;;6.47;5.97;;;;;;;;;;5117671;28;20541;-63
2023/10/23 13:49:55;;;;;;;6.40;5.77;;;;;;;;;;5117164;28;20517;-63
2023/10/23 13:52:22;;;;;;;6.90;5.47;;;;;;;;;;5116985;28;20684;-64
2023/10/23 13:54:48;;;;;;;5.63;5.20;;;;;;;;;;5123851;28;20503;-63
2023/10/23 13:57:16;;;;;;;8.53;5.63;;;;;;;;;;5123260;28;20956;-62
2023/10/23 13:59:42;;;;;;;5.87;5.00;;;;;;;;;;5114615;28;20466;-62
2023/10/23 14:02:09;;;;;;;5.20;4.80;;;;;;;;;;5129460;27;20484;-63
2023/10/23 14:04:35;;;;;;;7.20;4.97;;;;;;;;;;5136729;27;20818;-64
2023/10/23 14:07:02;;;;;;;5.70;4.97;;;;;;;;;;5127016;27;20517;-63
2023/10/23 14:09:29;;;;;;;5.10;4.60;;;;;;;;;;5124216;27;20441;-62
2023/10/23 14:11:55;;;;;;;5.30;4.80;;;;;;;;;;5115829;27;20493;-64
2023/10/23 14:14:23;;;;;;;4.30;4.00;;;;;;;;;;5106516;28;20558;-64
2023/10/23 14:16:49;;;;;;;5.20;4.70;;;;;;;;;;5114368;27;20472;-63
2023/10/23 14:19:16;;;;;;;4.83;4.20;;;;;;;;;;5113760;27;20690;-64
2023/10/23 14:21:42;;;;;;;4.60;4.20;;;;;;;;;;5113526;28;20454;-64